sensor_id;sensor_type;location;lat;lon;timestamp;P1;durP1;ratioP1;P2;durP2;ratioP2
72125;SDS011;59999;51.676;22.650;2023-07-16T00:01:57;17.13;;;11.50;;
72125;SDS011;59999;51.676;22.650;2023-07-16T00:04:23;17.35;;;11.07;;
72125;SDS011;59999;51.676;22.650;2023-07-16T00:06:49;16.85;;;10.93;;
72125;SDS011;59999;51.676;22.650;2023-07-16T00:09:15;15.07;;;11.43;;
72125;SDS011;59999;51.676;22.650;2023-07-16T00:11:41;16.75;;;11.60;;
72125;SDS011;59999;51.676;22.650;2023-07-16T00:14:07;19.55;;;12.32;;
72125;SDS011;59999;51.676;22.650;2023-07-16T00:16:35;16.27;;;11.18;;
72125;SDS011;59999;51.676;22.650;2023-07-16T00:19:01;15.80;;;11.23;;
72125;SDS011;59999;51.676;22.650;2023-07-16T00:21:27;17.00;;;11.60;;
72125;SDS011;59999;51.676;22.650;2023-07-16T00:23:52;16.45;;;11.20;;
72125;SDS011;59999;51.676;22.650;2023-07-16T00:26:18;16.20;;;10.90;;
72125;SDS011;59999;51.676;22.650;2023-07-16T00:28:44;16.05;;;11.20;;
72125;SDS011;59999;51.676;22.650;2023-07-16T00:31:10;16.73;;;10.98;;
72125;SDS011;59999;51.676;22.650;2023-07-16T00:33:36;15.83;;;11.57;;
72125;SDS011;59999;51.676;22.650;2023-07-16T00:36:02;16.15;;;11.23;;
72125;SDS011;59999;51.676;22.650;2023-07-16T00:38:28;17.05;;;11.48;;
72125;SDS011;59999;51.676;22.650;2023-07-16T00:40:54;18.70;;;12.02;;
72125;SDS011;59999;51.676;22.650;2023-07-16T00:43:20;17.03;;;10.53;;
72125;SDS011;59999;51.676;22.650;2023-07-16T00:45:46;16.65;;;11.52;;
72125;SDS011;59999;51.676;22.650;2023-07-16T00:48:13;16.90;;;11.48;;
72125;SDS011;59999;51.676;22.650;2023-07-16T00:50:40;17.38;;;12.38;;
72125;SDS011;59999;51.676;22.650;2023-07-16T00:53:06;16.00;;;11.32;;
72125;SDS011;59999;51.676;22.650;2023-07-16T00:55:34;16.47;;;11.67;;
72125;SDS011;59999;51.676;22.650;2023-07-16T00:58:10;17.00;;;12.00;;
72125;SDS011;59999;51.676;22.650;2023-07-16T01:00:37;17.58;;;12.02;;
72125;SDS011;59999;51.676;22.650;2023-07-16T01:03:04;20.63;;;12.05;;
72125;SDS011;59999;51.676;22.650;2023-07-16T01:05:37;15.85;;;11.55;;
72125;SDS011;59999;51.676;22.650;2023-07-16T01:08:28;17.47;;;12.10;;
72125;SDS011;59999;51.676;22.650;2023-07-16T01:11:04;16.55;;;11.63;;
72125;SDS011;59999;51.676;22.650;2023-07-16T01:13:30;18.75;;;11.93;;
72125;SDS011;59999;51.676;22.650;2023-07-16T01:15:56;18.23;;;12.10;;
72125;SDS011;59999;51.676;22.650;2023-07-16T01:18:22;16.57;;;12.03;;
72125;SDS011;59999;51.676;22.650;2023-07-16T01:20:47;16.77;;;12.30;;
72125;SDS011;59999;51.676;22.650;2023-07-16T01:23:20;21.05;;;11.70;;
72125;SDS011;59999;51.676;22.650;2023-07-16T01:28:47;18.80;;;12.40;;
72125;SDS011;59999;51.676;22.650;2023-07-16T01:31:36;17.55;;;12.05;;
72125;SDS011;59999;51.676;22.650;2023-07-16T01:34:03;18.73;;;12.07;;
72125;SDS011;59999;51.676;22.650;2023-07-16T01:36:31;15.90;;;12.38;;
72125;SDS011;59999;51.676;22.650;2023-07-16T01:38:59;19.63;;;13.43;;
72125;SDS011;59999;51.676;22.650;2023-07-16T01:41:26;19.90;;;12.57;;
72125;SDS011;59999;51.676;22.650;2023-07-16T01:43:52;19.20;;;13.27;;
72125;SDS011;59999;51.676;22.650;2023-07-16T01:46:18;18.03;;;12.73;;
72125;SDS011;59999;51.676;22.650;2023-07-16T01:48:44;17.23;;;12.07;;
72125;SDS011;59999;51.676;22.650;2023-07-16T01:51:10;18.85;;;12.68;;
72125;SDS011;59999;51.676;22.650;2023-07-16T01:53:39;18.92;;;12.68;;
72125;SDS011;59999;51.676;22.650;2023-07-16T01:56:06;21.45;;;13.45;;
72125;SDS011;59999;51.676;22.650;2023-07-16T01:58:32;18.80;;;12.83;;
72125;SDS011;59999;51.676;22.650;2023-07-16T02:00:58;17.92;;;12.68;;
72125;SDS011;59999;51.676;22.650;2023-07-16T02:03:24;18.92;;;12.63;;
72125;SDS011;59999;51.676;22.650;2023-07-16T02:05:50;16.43;;;11.93;;
72125;SDS011;59999;51.676;22.650;2023-07-16T02:08:18;18.55;;;13.07;;
72125;SDS011;59999;51.676;22.650;2023-07-16T02:10:46;19.02;;;13.57;;
72125;SDS011;59999;51.676;22.650;2023-07-16T02:13:12;17.67;;;13.02;;
72125;SDS011;59999;51.676;22.650;2023-07-16T02:15:38;18.98;;;12.75;;
72125;SDS011;59999;51.676;22.650;2023-07-16T02:18:04;16.57;;;12.23;;
72125;SDS011;59999;51.676;22.650;2023-07-16T02:20:31;19.63;;;12.60;;
72125;SDS011;59999;51.676;22.650;2023-07-16T02:22:57;18.67;;;12.80;;
72125;SDS011;59999;51.676;22.650;2023-07-16T02:25:23;19.45;;;12.50;;
72125;SDS011;59999;51.676;22.650;2023-07-16T02:27:49;19.45;;;13.27;;
72125;SDS011;59999;51.676;22.650;2023-07-16T02:30:15;17.15;;;12.82;;
72125;SDS011;59999;51.676;22.650;2023-07-16T02:32:41;21.40;;;13.03;;
72125;SDS011;59999;51.676;22.650;2023-07-16T02:35:07;20.88;;;13.07;;
72125;SDS011;59999;51.676;22.650;2023-07-16T02:37:33;19.13;;;13.02;;
72125;SDS011;59999;51.676;22.650;2023-07-16T02:39:59;19.08;;;13.23;;
72125;SDS011;59999;51.676;22.650;2023-07-16T02:42:25;19.67;;;12.53;;
72125;SDS011;59999;51.676;22.650;2023-07-16T02:44:51;19.58;;;12.80;;
72125;SDS011;59999;51.676;22.650;2023-07-16T02:47:17;18.38;;;12.82;;
72125;SDS011;59999;51.676;22.650;2023-07-16T02:49:43;19.13;;;13.18;;
72125;SDS011;59999;51.676;22.650;2023-07-16T02:52:09;19.13;;;13.13;;
72125;SDS011;59999;51.676;22.650;2023-07-16T02:54:35;21.25;;;12.77;;
72125;SDS011;59999;51.676;22.650;2023-07-16T02:57:02;19.02;;;12.90;;
72125;SDS011;59999;51.676;22.650;2023-07-16T02:59:28;18.55;;;13.07;;
72125;SDS011;59999;51.676;22.650;2023-07-16T03:01:54;20.73;;;13.17;;
72125;SDS011;59999;51.676;22.650;2023-07-16T03:04:20;19.63;;;13.68;;
72125;SDS011;59999;51.676;22.650;2023-07-16T03:06:46;21.55;;;13.55;;
72125;SDS011;59999;51.676;22.650;2023-07-16T03:09:12;21.20;;;13.40;;
72125;SDS011;59999;51.676;22.650;2023-07-16T03:11:38;17.45;;;12.50;;
72125;SDS011;59999;51.676;22.650;2023-07-16T03:14:04;20.65;;;13.88;;
72125;SDS011;59999;51.676;22.650;2023-07-16T03:16:30;20.50;;;13.33;;
72125;SDS011;59999;51.676;22.650;2023-07-16T03:18:56;18.02;;;13.27;;
72125;SDS011;59999;51.676;22.650;2023-07-16T03:21:21;19.50;;;14.32;;
72125;SDS011;59999;51.676;22.650;2023-07-16T03:23:47;24.17;;;14.05;;
72125;SDS011;59999;51.676;22.650;2023-07-16T03:26:13;21.83;;;13.77;;
72125;SDS011;59999;51.676;22.650;2023-07-16T03:28:39;21.52;;;13.15;;
72125;SDS011;59999;51.676;22.650;2023-07-16T03:31:05;19.43;;;13.70;;
72125;SDS011;59999;51.676;22.650;2023-07-16T03:33:31;19.98;;;13.60;;
72125;SDS011;59999;51.676;22.650;2023-07-16T03:35:57;19.40;;;14.05;;
72125;SDS011;59999;51.676;22.650;2023-07-16T03:38:23;19.77;;;13.57;;
72125;SDS011;59999;51.676;22.650;2023-07-16T03:40:49;19.08;;;13.65;;
72125;SDS011;59999;51.676;22.650;2023-07-16T03:43:16;17.95;;;12.95;;
72125;SDS011;59999;51.676;22.650;2023-07-16T03:45:42;18.13;;;13.07;;
72125;SDS011;59999;51.676;22.650;2023-07-16T03:48:08;20.00;;;13.67;;
72125;SDS011;59999;51.676;22.650;2023-07-16T03:50:35;19.80;;;13.05;;
72125;SDS011;59999;51.676;22.650;2023-07-16T03:53:01;20.05;;;13.63;;
72125;SDS011;59999;51.676;22.650;2023-07-16T03:55:28;19.23;;;12.60;;
72125;SDS011;59999;51.676;22.650;2023-07-16T03:57:55;22.77;;;13.13;;
72125;SDS011;59999;51.676;22.650;2023-07-16T04:00:21;19.50;;;13.50;;
72125;SDS011;59999;51.676;22.650;2023-07-16T04:02:47;18.25;;;13.32;;
72125;SDS011;59999;51.676;22.650;2023-07-16T04:05:13;18.45;;;13.15;;
72125;SDS011;59999;51.676;22.650;2023-07-16T04:07:39;20.50;;;13.15;;
72125;SDS011;59999;51.676;22.650;2023-07-16T04:10:05;19.47;;;13.13;;
72125;SDS011;59999;51.676;22.650;2023-07-16T04:12:31;19.38;;;12.52;;
72125;SDS011;59999;51.676;22.650;2023-07-16T04:14:57;17.27;;;12.43;;
72125;SDS011;59999;51.676;22.650;2023-07-16T04:17:25;17.33;;;12.68;;
72125;SDS011;59999;51.676;22.650;2023-07-16T04:19:50;18.48;;;12.77;;
72125;SDS011;59999;51.676;22.650;2023-07-16T04:22:17;16.67;;;12.18;;
72125;SDS011;59999;51.676;22.650;2023-07-16T04:24:42;18.67;;;12.10;;
72125;SDS011;59999;51.676;22.650;2023-07-16T04:27:09;16.08;;;11.65;;
72125;SDS011;59999;51.676;22.650;2023-07-16T04:29:34;15.30;;;11.43;;
72125;SDS011;59999;51.676;22.650;2023-07-16T04:32:01;15.20;;;11.48;;
72125;SDS011;59999;51.676;22.650;2023-07-16T04:34:28;15.93;;;11.43;;
72125;SDS011;59999;51.676;22.650;2023-07-16T04:36:54;17.45;;;11.45;;
72125;SDS011;59999;51.676;22.650;2023-07-16T04:39:20;14.10;;;11.20;;
72125;SDS011;59999;51.676;22.650;2023-07-16T04:41:46;17.05;;;11.25;;
72125;SDS011;59999;51.676;22.650;2023-07-16T04:44:11;16.10;;;11.23;;
72125;SDS011;59999;51.676;22.650;2023-07-16T04:46:38;16.40;;;11.75;;
72125;SDS011;59999;51.676;22.650;2023-07-16T04:49:04;14.57;;;10.83;;
72125;SDS011;59999;51.676;22.650;2023-07-16T04:51:30;14.52;;;10.55;;
72125;SDS011;59999;51.676;22.650;2023-07-16T04:53:56;15.30;;;10.25;;
72125;SDS011;59999;51.676;22.650;2023-07-16T04:56:23;14.65;;;9.70;;
72125;SDS011;59999;51.676;22.650;2023-07-16T04:58:50;15.73;;;10.10;;
72125;SDS011;59999;51.676;22.650;2023-07-16T05:01:16;11.82;;;9.07;;
72125;SDS011;59999;51.676;22.650;2023-07-16T05:03:42;15.00;;;9.40;;
72125;SDS011;59999;51.676;22.650;2023-07-16T05:06:08;12.55;;;9.27;;
72125;SDS011;59999;51.676;22.650;2023-07-16T05:08:34;12.07;;;9.33;;
72125;SDS011;59999;51.676;22.650;2023-07-16T05:11:01;11.70;;;8.73;;
72125;SDS011;59999;51.676;22.650;2023-07-16T05:13:27;13.20;;;8.80;;
72125;SDS011;59999;51.676;22.650;2023-07-16T05:15:53;11.75;;;8.27;;
72125;SDS011;59999;51.676;22.650;2023-07-16T05:18:19;11.87;;;8.83;;
72125;SDS011;59999;51.676;22.650;2023-07-16T05:20:48;12.00;;;8.40;;
72125;SDS011;59999;51.676;22.650;2023-07-16T05:23:14;12.27;;;8.23;;
72125;SDS011;59999;51.676;22.650;2023-07-16T05:25:47;12.75;;;8.13;;
72125;SDS011;59999;51.676;22.650;2023-07-16T05:28:14;10.45;;;7.60;;
72125;SDS011;59999;51.676;22.650;2023-07-16T05:30:41;9.40;;;6.93;;
72125;SDS011;59999;51.676;22.650;2023-07-16T05:33:07;12.40;;;7.53;;
72125;SDS011;59999;51.676;22.650;2023-07-16T05:35:33;10.65;;;7.88;;
72125;SDS011;59999;51.676;22.650;2023-07-16T05:37:58;10.90;;;7.17;;
72125;SDS011;59999;51.676;22.650;2023-07-16T05:40:24;10.20;;;7.45;;
72125;SDS011;59999;51.676;22.650;2023-07-16T05:42:50;13.75;;;8.40;;
72125;SDS011;59999;51.676;22.650;2023-07-16T05:45:16;10.30;;;7.53;;
72125;SDS011;59999;51.676;22.650;2023-07-16T05:47:42;11.47;;;6.73;;
72125;SDS011;59999;51.676;22.650;2023-07-16T05:50:08;10.38;;;7.38;;
72125;SDS011;59999;51.676;22.650;2023-07-16T05:52:34;9.20;;;6.63;;
72125;SDS011;59999;51.676;22.650;2023-07-16T05:55:00;13.57;;;6.97;;
72125;SDS011;59999;51.676;22.650;2023-07-16T05:57:26;11.07;;;6.85;;
72125;SDS011;59999;51.676;22.650;2023-07-16T05:59:52;9.70;;;6.47;;
72125;SDS011;59999;51.676;22.650;2023-07-16T06:02:18;11.00;;;6.85;;
72125;SDS011;59999;51.676;22.650;2023-07-16T06:04:44;11.23;;;6.83;;
72125;SDS011;59999;51.676;22.650;2023-07-16T06:07:10;10.10;;;6.38;;
72125;SDS011;59999;51.676;22.650;2023-07-16T06:09:36;10.15;;;7.20;;
72125;SDS011;59999;51.676;22.650;2023-07-16T06:12:02;9.33;;;6.50;;
72125;SDS011;59999;51.676;22.650;2023-07-16T06:14:28;9.50;;;6.28;;
72125;SDS011;59999;51.676;22.650;2023-07-16T06:16:54;9.55;;;6.40;;
72125;SDS011;59999;51.676;22.650;2023-07-16T06:19:21;9.77;;;6.63;;
72125;SDS011;59999;51.676;22.650;2023-07-16T06:21:46;11.70;;;6.73;;
72125;SDS011;59999;51.676;22.650;2023-07-16T06:24:12;12.07;;;7.00;;
72125;SDS011;59999;51.676;22.650;2023-07-16T06:26:38;10.20;;;6.70;;
72125;SDS011;59999;51.676;22.650;2023-07-16T06:29:04;9.67;;;6.93;;
72125;SDS011;59999;51.676;22.650;2023-07-16T06:31:30;10.95;;;6.95;;
72125;SDS011;59999;51.676;22.650;2023-07-16T06:33:56;9.88;;;6.13;;
72125;SDS011;59999;51.676;22.650;2023-07-16T06:36:24;10.77;;;6.88;;
72125;SDS011;59999;51.676;22.650;2023-07-16T06:38:50;10.57;;;6.87;;
72125;SDS011;59999;51.676;22.650;2023-07-16T06:41:17;9.18;;;6.60;;
72125;SDS011;59999;51.676;22.650;2023-07-16T06:43:43;9.05;;;6.57;;
72125;SDS011;59999;51.676;22.650;2023-07-16T06:46:09;8.87;;;6.70;;
72125;SDS011;59999;51.676;22.650;2023-07-16T06:48:35;9.48;;;6.63;;
72125;SDS011;59999;51.676;22.650;2023-07-16T06:51:01;8.13;;;6.67;;
72125;SDS011;59999;51.676;22.650;2023-07-16T06:53:27;9.80;;;6.67;;
72125;SDS011;59999;51.676;22.650;2023-07-16T06:55:53;11.35;;;6.18;;
72125;SDS011;59999;51.676;22.650;2023-07-16T06:58:19;9.55;;;6.80;;
72125;SDS011;59999;51.676;22.650;2023-07-16T07:00:45;9.20;;;6.40;;
72125;SDS011;59999;51.676;22.650;2023-07-16T07:03:11;8.57;;;6.15;;
72125;SDS011;59999;51.676;22.650;2023-07-16T07:05:40;9.20;;;6.53;;
72125;SDS011;59999;51.676;22.650;2023-07-16T07:08:07;8.98;;;6.72;;
72125;SDS011;59999;51.676;22.650;2023-07-16T07:10:32;11.60;;;6.83;;
72125;SDS011;59999;51.676;22.650;2023-07-16T07:13:00;9.20;;;6.70;;
72125;SDS011;59999;51.676;22.650;2023-07-16T07:15:26;12.15;;;6.28;;
72125;SDS011;59999;51.676;22.650;2023-07-16T07:17:52;11.10;;;6.00;;
72125;SDS011;59999;51.676;22.650;2023-07-16T07:20:18;9.43;;;6.35;;
72125;SDS011;59999;51.676;22.650;2023-07-16T07:22:44;9.10;;;6.50;;
72125;SDS011;59999;51.676;22.650;2023-07-16T07:25:10;11.53;;;6.30;;
72125;SDS011;59999;51.676;22.650;2023-07-16T07:27:36;10.17;;;6.53;;
72125;SDS011;59999;51.676;22.650;2023-07-16T07:30:02;10.88;;;6.00;;
72125;SDS011;59999;51.676;22.650;2023-07-16T07:32:28;10.73;;;6.20;;
72125;SDS011;59999;51.676;22.650;2023-07-16T07:34:54;9.77;;;6.10;;
72125;SDS011;59999;51.676;22.650;2023-07-16T07:37:20;8.48;;;6.38;;
72125;SDS011;59999;51.676;22.650;2023-07-16T07:39:49;10.32;;;6.20;;
72125;SDS011;59999;51.676;22.650;2023-07-16T07:42:17;10.82;;;6.22;;
72125;SDS011;59999;51.676;22.650;2023-07-16T07:44:43;10.20;;;6.10;;
72125;SDS011;59999;51.676;22.650;2023-07-16T07:47:09;9.05;;;6.00;;
72125;SDS011;59999;51.676;22.650;2023-07-16T07:49:35;8.47;;;5.93;;
72125;SDS011;59999;51.676;22.650;2023-07-16T07:52:01;8.23;;;5.30;;
72125;SDS011;59999;51.676;22.650;2023-07-16T07:54:27;10.45;;;6.22;;
72125;SDS011;59999;51.676;22.650;2023-07-16T07:56:53;9.88;;;6.40;;
72125;SDS011;59999;51.676;22.650;2023-07-16T07:59:19;8.17;;;5.90;;
72125;SDS011;59999;51.676;22.650;2023-07-16T08:01:45;8.80;;;6.38;;
72125;SDS011;59999;51.676;22.650;2023-07-16T08:04:11;8.57;;;6.43;;
72125;SDS011;59999;51.676;22.650;2023-07-16T08:06:37;8.40;;;6.28;;
72125;SDS011;59999;51.676;22.650;2023-07-16T08:09:03;8.03;;;6.07;;
72125;SDS011;59999;51.676;22.650;2023-07-16T08:11:30;8.02;;;5.93;;
72125;SDS011;59999;51.676;22.650;2023-07-16T08:13:56;9.00;;;6.75;;
72125;SDS011;59999;51.676;22.650;2023-07-16T08:16:22;10.35;;;6.32;;
72125;SDS011;59999;51.676;22.650;2023-07-16T08:18:47;8.77;;;5.70;;
72125;SDS011;59999;51.676;22.650;2023-07-16T08:21:14;9.40;;;6.05;;
72125;SDS011;59999;51.676;22.650;2023-07-16T08:23:51;9.93;;;6.13;;
72125;SDS011;59999;51.676;22.650;2023-07-16T08:26:17;7.77;;;5.80;;
72125;SDS011;59999;51.676;22.650;2023-07-16T08:28:43;7.78;;;5.85;;
72125;SDS011;59999;51.676;22.650;2023-07-16T08:31:10;8.05;;;5.88;;
72125;SDS011;59999;51.676;22.650;2023-07-16T08:33:38;8.27;;;5.97;;
72125;SDS011;59999;51.676;22.650;2023-07-16T08:36:04;8.25;;;6.15;;
72125;SDS011;59999;51.676;22.650;2023-07-16T08:38:30;8.90;;;5.87;;
72125;SDS011;59999;51.676;22.650;2023-07-16T08:40:56;10.98;;;6.30;;
72125;SDS011;59999;51.676;22.650;2023-07-16T08:43:22;9.25;;;6.00;;
72125;SDS011;59999;51.676;22.650;2023-07-16T08:45:49;7.83;;;5.80;;
72125;SDS011;59999;51.676;22.650;2023-07-16T08:48:16;12.20;;;5.78;;
72125;SDS011;59999;51.676;22.650;2023-07-16T08:50:46;11.43;;;5.95;;
72125;SDS011;59999;51.676;22.650;2023-07-16T08:53:16;8.48;;;5.78;;
72125;SDS011;59999;51.676;22.650;2023-07-16T08:55:45;8.23;;;6.53;;
72125;SDS011;59999;51.676;22.650;2023-07-16T08:58:12;8.57;;;5.97;;
72125;SDS011;59999;51.676;22.650;2023-07-16T09:00:41;10.75;;;6.63;;
72125;SDS011;59999;51.676;22.650;2023-07-16T09:03:10;8.45;;;5.80;;
72125;SDS011;59999;51.676;22.650;2023-07-16T09:05:39;7.93;;;6.10;;
72125;SDS011;59999;51.676;22.650;2023-07-16T09:08:05;9.63;;;5.85;;
72125;SDS011;59999;51.676;22.650;2023-07-16T09:10:32;7.80;;;6.20;;
72125;SDS011;59999;51.676;22.650;2023-07-16T09:12:58;9.75;;;5.70;;
72125;SDS011;59999;51.676;22.650;2023-07-16T09:15:25;8.88;;;5.95;;
72125;SDS011;59999;51.676;22.650;2023-07-16T09:17:53;8.85;;;6.22;;
72125;SDS011;59999;51.676;22.650;2023-07-16T09:20:20;8.32;;;7.07;;
72125;SDS011;59999;51.676;22.650;2023-07-16T09:22:49;10.70;;;6.07;;
72125;SDS011;59999;51.676;22.650;2023-07-16T09:25:15;8.93;;;6.28;;
72125;SDS011;59999;51.676;22.650;2023-07-16T09:27:42;7.13;;;5.53;;
72125;SDS011;59999;51.676;22.650;2023-07-16T09:30:14;10.07;;;6.70;;
72125;SDS011;59999;51.676;22.650;2023-07-16T09:32:40;8.85;;;6.07;;
72125;SDS011;59999;51.676;22.650;2023-07-16T09:35:11;9.37;;;6.10;;
72125;SDS011;59999;51.676;22.650;2023-07-16T09:37:38;8.90;;;5.95;;
72125;SDS011;59999;51.676;22.650;2023-07-16T09:40:07;8.57;;;6.18;;
72125;SDS011;59999;51.676;22.650;2023-07-16T09:42:38;8.43;;;6.68;;
72125;SDS011;59999;51.676;22.650;2023-07-16T09:45:06;8.85;;;6.07;;
72125;SDS011;59999;51.676;22.650;2023-07-16T09:47:36;8.43;;;6.07;;
72125;SDS011;59999;51.676;22.650;2023-07-16T09:50:02;9.30;;;6.30;;
72125;SDS011;59999;51.676;22.650;2023-07-16T09:52:30;7.70;;;5.75;;
72125;SDS011;59999;51.676;22.650;2023-07-16T09:54:57;8.55;;;6.20;;
72125;SDS011;59999;51.676;22.650;2023-07-16T09:57:27;8.32;;;6.65;;
72125;SDS011;59999;51.676;22.650;2023-07-16T09:59:56;8.70;;;6.33;;
72125;SDS011;59999;51.676;22.650;2023-07-16T10:02:24;10.77;;;5.93;;
72125;SDS011;59999;51.676;22.650;2023-07-16T10:04:51;8.27;;;6.15;;
72125;SDS011;59999;51.676;22.650;2023-07-16T10:07:22;9.60;;;6.70;;
72125;SDS011;59999;51.676;22.650;2023-07-16T10:09:56;7.93;;;5.70;;
72125;SDS011;59999;51.676;22.650;2023-07-16T10:12:23;8.37;;;6.07;;
72125;SDS011;59999;51.676;22.650;2023-07-16T10:14:52;9.45;;;6.15;;
72125;SDS011;59999;51.676;22.650;2023-07-16T10:17:22;8.70;;;6.00;;
72125;SDS011;59999;51.676;22.650;2023-07-16T10:20:06;8.18;;;5.70;;
72125;SDS011;59999;51.676;22.650;2023-07-16T10:22:37;9.05;;;5.93;;
72125;SDS011;59999;51.676;22.650;2023-07-16T10:25:21;8.67;;;6.67;;
72125;SDS011;59999;51.676;22.650;2023-07-16T10:27:49;8.15;;;6.00;;
72125;SDS011;59999;51.676;22.650;2023-07-16T10:30:17;8.07;;;5.93;;
72125;SDS011;59999;51.676;22.650;2023-07-16T10:32:43;7.47;;;5.80;;
72125;SDS011;59999;51.676;22.650;2023-07-16T10:35:11;7.80;;;5.88;;
72125;SDS011;59999;51.676;22.650;2023-07-16T10:37:37;8.87;;;6.40;;
72125;SDS011;59999;51.676;22.650;2023-07-16T10:40:04;10.07;;;6.40;;
72125;SDS011;59999;51.676;22.650;2023-07-16T10:42:31;8.73;;;6.13;;
72125;SDS011;59999;51.676;22.650;2023-07-16T10:44:58;8.95;;;6.30;;
72125;SDS011;59999;51.676;22.650;2023-07-16T10:47:29;7.90;;;6.20;;
72125;SDS011;59999;51.676;22.650;2023-07-16T10:49:56;7.40;;;5.77;;
72125;SDS011;59999;51.676;22.650;2023-07-16T10:52:22;9.38;;;6.30;;
72125;SDS011;59999;51.676;22.650;2023-07-16T10:54:49;8.30;;;6.07;;
72125;SDS011;59999;51.676;22.650;2023-07-16T10:57:17;9.43;;;5.88;;
72125;SDS011;59999;51.676;22.650;2023-07-16T10:59:45;7.40;;;5.93;;
72125;SDS011;59999;51.676;22.650;2023-07-16T11:02:12;8.82;;;6.05;;
72125;SDS011;59999;51.676;22.650;2023-07-16T11:04:39;8.30;;;6.47;;
72125;SDS011;59999;51.676;22.650;2023-07-16T11:07:06;9.23;;;6.20;;
72125;SDS011;59999;51.676;22.650;2023-07-16T11:09:34;8.55;;;6.40;;
72125;SDS011;59999;51.676;22.650;2023-07-16T11:12:06;9.03;;;6.50;;
72125;SDS011;59999;51.676;22.650;2023-07-16T11:14:34;7.85;;;6.57;;
72125;SDS011;59999;51.676;22.650;2023-07-16T11:17:07;8.30;;;6.28;;
72125;SDS011;59999;51.676;22.650;2023-07-16T11:19:36;8.68;;;5.97;;
72125;SDS011;59999;51.676;22.650;2023-07-16T11:22:03;8.57;;;6.20;;
72125;SDS011;59999;51.676;22.650;2023-07-16T11:24:41;8.93;;;6.33;;
72125;SDS011;59999;51.676;22.650;2023-07-16T11:32:25;7.55;;;6.10;;
72125;SDS011;59999;51.676;22.650;2023-07-16T11:34:55;8.60;;;6.30;;
72125;SDS011;59999;51.676;22.650;2023-07-16T11:37:22;8.90;;;6.30;;
72125;SDS011;59999;51.676;22.650;2023-07-16T11:39:50;8.15;;;6.10;;
72125;SDS011;59999;51.676;22.650;2023-07-16T11:42:23;8.35;;;6.13;;
72125;SDS011;59999;51.676;22.650;2023-07-16T11:44:59;8.18;;;5.97;;
72125;SDS011;59999;51.676;22.650;2023-07-16T11:47:25;8.98;;;6.03;;
72125;SDS011;59999;51.676;22.650;2023-07-16T11:49:52;8.07;;;6.30;;
72125;SDS011;59999;51.676;22.650;2023-07-16T11:52:25;8.93;;;6.43;;
72125;SDS011;59999;51.676;22.650;2023-07-16T11:54:53;7.72;;;5.90;;
72125;SDS011;59999;51.676;22.650;2023-07-16T11:57:19;7.78;;;6.10;;
72125;SDS011;59999;51.676;22.650;2023-07-16T11:59:45;9.43;;;5.63;;
72125;SDS011;59999;51.676;22.650;2023-07-16T12:02:11;8.03;;;5.60;;
72125;SDS011;59999;51.676;22.650;2023-07-16T12:04:38;7.93;;;5.90;;
72125;SDS011;59999;51.676;22.650;2023-07-16T12:07:04;7.72;;;5.70;;
72125;SDS011;59999;51.676;22.650;2023-07-16T12:09:30;8.55;;;5.85;;
72125;SDS011;59999;51.676;22.650;2023-07-16T12:11:56;8.10;;;5.60;;
72125;SDS011;59999;51.676;22.650;2023-07-16T12:14:22;7.75;;;5.95;;
72125;SDS011;59999;51.676;22.650;2023-07-16T12:16:48;7.53;;;5.95;;
72125;SDS011;59999;51.676;22.650;2023-07-16T12:19:14;8.90;;;6.00;;
72125;SDS011;59999;51.676;22.650;2023-07-16T12:21:40;8.20;;;5.75;;
72125;SDS011;59999;51.676;22.650;2023-07-16T12:24:06;8.15;;;5.93;;
72125;SDS011;59999;51.676;22.650;2023-07-16T12:26:32;7.63;;;5.53;;
72125;SDS011;59999;51.676;22.650;2023-07-16T12:28:59;8.07;;;5.60;;
72125;SDS011;59999;51.676;22.650;2023-07-16T12:31:28;7.40;;;4.93;;
72125;SDS011;59999;51.676;22.650;2023-07-16T12:33:59;6.55;;;5.18;;
72125;SDS011;59999;51.676;22.650;2023-07-16T12:36:26;6.85;;;5.40;;
72125;SDS011;59999;51.676;22.650;2023-07-16T12:38:53;8.60;;;5.20;;
72125;SDS011;59999;51.676;22.650;2023-07-16T12:41:19;7.40;;;5.65;;
72125;SDS011;59999;51.676;22.650;2023-07-16T12:43:46;7.30;;;5.53;;
72125;SDS011;59999;51.676;22.650;2023-07-16T12:46:12;7.28;;;5.55;;
72125;SDS011;59999;51.676;22.650;2023-07-16T12:48:38;7.10;;;5.30;;
72125;SDS011;59999;51.676;22.650;2023-07-16T12:51:04;7.57;;;5.10;;
72125;SDS011;59999;51.676;22.650;2023-07-16T12:53:30;8.45;;;5.40;;
72125;SDS011;59999;51.676;22.650;2023-07-16T12:55:56;7.03;;;5.40;;
72125;SDS011;59999;51.676;22.650;2023-07-16T12:58:22;8.40;;;5.20;;
72125;SDS011;59999;51.676;22.650;2023-07-16T13:00:48;6.95;;;5.00;;
72125;SDS011;59999;51.676;22.650;2023-07-16T13:03:14;6.95;;;5.07;;
72125;SDS011;59999;51.676;22.650;2023-07-16T13:05:42;10.50;;;4.93;;
72125;SDS011;59999;51.676;22.650;2023-07-16T13:08:09;6.80;;;5.30;;
72125;SDS011;59999;51.676;22.650;2023-07-16T13:10:35;7.10;;;5.30;;
72125;SDS011;59999;51.676;22.650;2023-07-16T13:13:01;7.85;;;5.60;;
72125;SDS011;59999;51.676;22.650;2023-07-16T13:15:29;6.78;;;5.80;;
72125;SDS011;59999;51.676;22.650;2023-07-16T13:17:55;7.47;;;5.88;;
72125;SDS011;59999;51.676;22.650;2023-07-16T13:20:21;7.20;;;5.73;;
72125;SDS011;59999;51.676;22.650;2023-07-16T13:22:48;7.93;;;5.60;;
72125;SDS011;59999;51.676;22.650;2023-07-16T13:25:13;6.68;;;5.40;;
72125;SDS011;59999;51.676;22.650;2023-07-16T13:27:40;7.55;;;5.55;;
72125;SDS011;59999;51.676;22.650;2023-07-16T13:30:06;7.70;;;6.00;;
72125;SDS011;59999;51.676;22.650;2023-07-16T13:32:32;7.10;;;5.72;;
72125;SDS011;59999;51.676;22.650;2023-07-16T13:34:58;7.90;;;6.25;;
72125;SDS011;59999;51.676;22.650;2023-07-16T13:37:24;8.13;;;5.93;;
72125;SDS011;59999;51.676;22.650;2023-07-16T13:39:50;7.33;;;6.27;;
72125;SDS011;59999;51.676;22.650;2023-07-16T13:42:16;8.70;;;6.32;;
72125;SDS011;59999;51.676;22.650;2023-07-16T13:44:42;8.10;;;6.40;;
72125;SDS011;59999;51.676;22.650;2023-07-16T13:47:08;7.53;;;6.38;;
72125;SDS011;59999;51.676;22.650;2023-07-16T13:49:34;7.13;;;5.80;;
72125;SDS011;59999;51.676;22.650;2023-07-16T13:52:00;9.05;;;5.93;;
72125;SDS011;59999;51.676;22.650;2023-07-16T13:54:26;8.90;;;6.00;;
72125;SDS011;59999;51.676;22.650;2023-07-16T13:56:52;9.00;;;6.30;;
72125;SDS011;59999;51.676;22.650;2023-07-16T13:59:17;8.50;;;6.65;;
72125;SDS011;59999;51.676;22.650;2023-07-16T14:01:43;7.68;;;6.35;;
72125;SDS011;59999;51.676;22.650;2023-07-16T14:04:09;10.57;;;6.23;;
72125;SDS011;59999;51.676;22.650;2023-07-16T14:06:35;8.40;;;6.50;;
72125;SDS011;59999;51.676;22.650;2023-07-16T14:09:01;8.35;;;6.82;;
72125;SDS011;59999;51.676;22.650;2023-07-16T14:11:27;7.93;;;6.60;;
72125;SDS011;59999;51.676;22.650;2023-07-16T14:13:53;7.95;;;6.40;;
72125;SDS011;59999;51.676;22.650;2023-07-16T14:16:22;9.63;;;7.13;;
72125;SDS011;59999;51.676;22.650;2023-07-16T14:18:52;9.00;;;7.00;;
72125;SDS011;59999;51.676;22.650;2023-07-16T14:21:19;8.47;;;7.30;;
72125;SDS011;59999;51.676;22.650;2023-07-16T14:23:45;10.57;;;7.40;;
72125;SDS011;59999;51.676;22.650;2023-07-16T14:26:12;8.57;;;7.35;;
72125;SDS011;59999;51.676;22.650;2023-07-16T14:28:37;8.52;;;6.97;;
72125;SDS011;59999;51.676;22.650;2023-07-16T14:31:04;10.00;;;7.25;;